Time;durP1;ratioP1;P1;durP2;ratioP2;P2;SDS_P1;SDS_P2;PMS_P1;PMS_P2;Temp;Humidity;BMP_temperature;BMP_pressure;BME280_temperature;BME280_humidity;BME280_pressure;Samples;Min_cycle;Max_cycle;Signal;HPM_P1;HPM_P2
2021/05/19 00:01:19;336897.00;1.12;581.34;0.00;0.00;0.62;;;;;13.70;1.00;;;;;;2270018;61;1303;-84
2021/05/19 00:03:46;258952.00;0.86;447.35;0.00;0.00;0.62;;;;;13.60;1.00;;;;;;2269802;61;1220;-84
2021/05/19 00:06:12;383897.00;1.28;662.12;0.00;0.00;0.62;;;;;13.20;1.00;;;;;;2269821;61;1270;-84
2021/05/19 00:08:39;282686.00;0.94;488.16;0.00;0.00;0.62;;;;;13.40;1.00;;;;;;2269262;61;2009;-84
2021/05/19 00:11:05;396230.00;1.32;683.32;0.00;0.00;0.62;;;;;13.10;1.00;;;;;;2269847;61;1110;-84
2021/05/19 00:13:33;523005.00;1.74;901.44;113962.00;0.38;197.67;;;;;13.10;1.00;;;;;;2270059;61;1163;-84
2021/05/19 00:16:01;338184.00;1.13;583.55;0.00;0.00;0.62;;;;;13.00;1.00;;;;;;2269899;61;1266;-84
2021/05/19 00:18:27;309326.00;1.03;533.95;0.00;0.00;0.62;;;;;12.90;1.00;;;;;;2270475;61;1215;-84
2021/05/19 00:20:54;348712.00;1.16;601.65;0.00;0.00;0.62;;;;;13.10;1.00;;;;;;2270154;61;1624;-84
2021/05/19 00:23:21;251249.00;0.84;434.10;0.00;0.00;0.62;;;;;13.20;1.00;;;;;;2269060;61;1159;-84
2021/05/19 00:25:48;228234.00;0.76;394.51;0.00;0.00;0.62;;;;;13.60;1.00;;;;;;2264888;61;1351;-83
2021/05/19 00:28:14;677144.00;2.26;1167.63;38497.00;0.13;67.29;;;;;13.50;1.00;;;;;;2264636;61;1919;-84
2021/05/19 00:30:40;299759.00;1.00;517.51;0.00;0.00;0.62;;;;;13.60;1.00;;;;;;2264102;61;1240;-84
2021/05/19 00:33:08;385769.00;1.29;665.34;0.00;0.00;0.62;;;;;13.80;1.00;;;;;;2264051;61;1128;-83
2021/05/19 00:35:34;165360.00;0.55;286.27;0.00;0.00;0.62;;;;;13.90;1.00;;;;;;2264121;61;1258;-84
2021/05/19 00:38:01;251058.00;0.84;433.77;0.00;0.00;0.62;;;;;13.90;1.00;;;;;;2264027;61;1700;-84
2021/05/19 00:40:27;295478.00;0.98;510.15;0.00;0.00;0.62;;;;;13.90;1.00;;;;;;2263890;61;1709;-84
2021/05/19 00:42:54;325320.00;1.08;561.44;0.00;0.00;0.62;;;;;13.70;1.00;;;;;;2263677;61;1220;-84
2021/05/19 00:45:20;345091.00;1.15;595.42;0.00;0.00;0.62;;;;;13.50;1.00;;;;;;2264118;61;1774;-84
2021/05/19 00:47:47;403124.00;1.34;695.18;50927.00;0.17;88.79;;;;;13.30;1.00;;;;;;2264118;61;1937;-84
2021/05/19 00:50:17;247885.00;0.83;428.31;0.00;0.00;0.62;;;;;13.40;1.00;;;;;;2264135;61;1158;-84
2021/05/19 00:52:44;241639.00;0.81;417.57;0.00;0.00;0.62;;;;;13.60;1.00;;;;;;2264145;61;1126;-84
2021/05/19 00:55:12;386223.00;1.29;666.12;0.00;0.00;0.62;;;;;13.60;1.00;;;;;;2264038;61;1411;-84
2021/05/19 00:57:39;180116.00;0.60;311.69;0.00;0.00;0.62;;;;;13.60;1.00;;;;;;2263972;61;1238;-84
2021/05/19 01:00:08;202135.00;0.67;349.60;0.00;0.00;0.62;;;;;13.80;1.00;;;;;;2264199;61;1128;-84
2021/05/19 01:02:36;254684.00;0.85;440.01;0.00;0.00;0.62;;;;;13.80;1.00;;;;;;2264501;61;1169;-84
2021/05/19 01:05:05;288264.00;0.96;497.74;0.00;0.00;0.62;;;;;13.90;1.00;;;;;;2266421;61;1394;-84
2021/05/19 01:07:34;146480.00;0.49;253.74;0.00;0.00;0.62;;;;;14.00;1.00;;;;;;2272714;61;1140;-85
2021/05/19 01:10:00;315363.00;1.05;544.33;0.00;0.00;0.62;;;;;14.10;1.00;;;;;;2272754;61;2022;-85
2021/05/19 01:12:27;239758.00;0.80;414.33;74818.00;0.25;130.09;;;;;14.30;1.00;;;;;;2272712;61;1195;-84
2021/05/19 01:14:54;257293.00;0.86;444.49;76618.00;0.26;133.19;;;;;14.60;1.00;;;;;;2272709;61;1318;-84
2021/05/19 01:17:22;246280.00;0.82;425.55;74583.00;0.25;129.68;;;;;14.30;1.00;;;;;;2272650;61;1203;-84
2021/05/19 01:19:51;388137.00;1.29;669.41;118252.00;0.39;205.07;;;;;13.70;1.00;;;;;;2272705;61;1137;-84
2021/05/19 01:22:25;308033.00;1.03;531.73;83676.00;0.28;145.39;;;;;13.40;1.00;;;;;;2266382;61;1570;-84
2021/05/19 01:24:52;432858.00;1.44;746.30;86528.00;0.29;150.31;;;;;13.30;1.00;;;;;;2266420;61;1482;-84
2021/05/19 01:27:20;277614.00;0.93;479.44;68446.00;0.23;119.07;;;;;13.50;1.00;;;;;;2267262;61;1180;-84
2021/05/19 01:29:48;306403.00;1.02;528.93;71176.00;0.24;123.79;;;;;14.00;1.00;;;;;;2266931;61;2022;-83
2021/05/19 01:32:14;284269.00;0.95;490.88;80250.00;0.27;139.47;;;;;13.90;1.00;;;;;;2266215;61;1128;-84
2021/05/19 01:34:41;301165.00;1.00;519.92;61764.00;0.21;107.53;;;;;14.20;1.00;;;;;;2265913;61;1383;-83
2021/05/19 01:37:12;375521.00;1.25;647.73;77657.00;0.26;134.99;;;;;14.20;1.00;;;;;;2266053;61;1287;-84
2021/05/19 01:39:40;327854.00;1.09;565.80;79722.00;0.27;138.56;;;;;14.30;1.00;;;;;;2265776;61;1238;-83
2021/05/19 01:42:08;300019.00;1.00;517.95;76417.00;0.25;132.85;;;;;14.40;1.00;;;;;;2264736;61;1118;-83
2021/05/19 01:44:34;333175.00;1.11;574.94;81996.00;0.27;142.48;;;;;14.30;1.00;;;;;;2264103;61;1254;-83
2021/05/19 01:47:02;220845.00;0.74;381.80;79877.00;0.27;138.82;;;;;14.40;1.00;;;;;;2268923;61;1138;-83
2021/05/19 01:49:30;323748.00;1.08;558.74;84622.00;0.28;147.02;;;;;14.20;1.00;;;;;;2264222;61;1919;-83
2021/05/19 01:51:59;327689.00;1.09;565.51;75594.00;0.25;131.43;;;;;14.20;1.00;;;;;;2263995;61;1262;-84
2021/05/19 01:54:27;262229.00;0.87;452.98;76507.00;0.26;133.00;;;;;14.30;1.00;;;;;;2264359;61;1315;-83
2021/05/19 01:56:55;325756.00;1.09;562.19;87406.00;0.29;151.83;;;;;14.60;1.00;;;;;;2264767;61;1082;-84
2021/05/19 01:59:22;308396.00;1.03;532.35;82984.00;0.28;144.19;;;;;14.70;1.00;;;;;;2271230;61;1105;-85
2021/05/19 02:01:49;264635.00;0.88;457.12;75664.00;0.25;131.55;;;;;14.70;1.00;;;;;;2268653;61;1157;-84
2021/05/19 02:04:17;310707.00;1.04;536.32;83178.00;0.28;144.53;;;;;14.70;1.00;;;;;;2264144;61;1295;-83
2021/05/19 02:06:47;251479.00;0.84;434.49;83493.00;0.28;145.07;;;;;14.70;1.00;;;;;;2264363;61;1141;-84
2021/05/19 02:09:14;340384.00;1.13;587.33;86424.00;0.29;150.13;;;;;14.80;1.00;;;;;;2264045;61;2020;-83
2021/05/19 02:11:41;301494.00;1.00;520.49;83892.00;0.28;145.76;;;;;14.60;1.00;;;;;;2265574;61;1264;-83
2021/05/19 02:14:08;289044.00;0.96;499.09;85573.00;0.29;148.66;;;;;14.30;1.00;;;;;;2271267;61;1373;-84
2021/05/19 02:16:35;625250.00;2.08;1077.84;165871.00;0.55;287.15;;;;;14.20;1.00;;;;;;2272682;61;1212;-84
2021/05/19 02:19:01;367899.00;1.23;634.63;84542.00;0.28;146.88;;;;;14.00;1.00;;;;;;2272624;61;1199;-85
2021/05/19 02:21:28;390479.00;1.30;673.44;75896.00;0.25;131.95;;;;;14.40;1.00;;;;;;2272586;61;1223;-84
2021/05/19 02:23:55;338574.00;1.13;584.22;72387.00;0.24;125.89;;;;;14.60;1.00;;;;;;2272528;61;1181;-84
2021/05/19 02:26:21;425067.00;1.42;732.90;79510.00;0.27;138.19;;;;;14.70;1.00;;;;;;2271035;61;1411;-83
2021/05/19 02:28:48;290827.00;0.97;502.15;78263.00;0.26;136.04;;;;;14.90;1.00;;;;;;2266675;61;2018;-84
2021/05/19 02:31:15;484806.00;1.62;835.67;71119.00;0.24;123.69;;;;;15.10;1.00;;;;;;2266172;61;1557;-83
2021/05/19 02:33:42;328583.00;1.10;567.05;78855.00;0.26;137.06;;;;;14.60;1.00;;;;;;2265847;61;1687;-84
2021/05/19 02:36:09;331900.00;1.11;572.75;93837.00;0.31;162.93;;;;;14.40;1.00;;;;;;2265941;61;1359;-84
2021/05/19 02:38:35;375870.00;1.25;648.33;82980.00;0.28;144.18;;;;;14.50;1.00;;;;;;2266402;61;1151;-83
2021/05/19 02:41:03;335074.00;1.12;578.21;79973.00;0.27;138.99;;;;;14.70;1.00;;;;;;2272438;61;1103;-84
2021/05/19 02:43:29;445240.00;1.48;767.60;72418.00;0.24;125.94;;;;;14.80;1.00;;;;;;2266772;61;1156;-84
2021/05/19 02:45:56;367100.00;1.22;633.25;83267.00;0.28;144.68;;;;;14.70;1.00;;;;;;2264460;61;1253;-84
2021/05/19 02:48:24;345044.00;1.15;595.34;80830.00;0.27;140.47;;;;;15.00;1.00;;;;;;2264407;61;2022;-82
2021/05/19 02:50:51;430989.00;1.44;743.09;75852.00;0.25;131.87;;;;;15.10;1.00;;;;;;2264509;61;1095;-83
2021/05/19 02:53:17;394970.00;1.32;681.16;83142.00;0.28;144.46;;;;;15.20;1.00;;;;;;2263874;61;1138;-84
2021/05/19 02:55:44;373098.00;1.24;643.56;81665.00;0.27;141.91;;;;;14.70;1.00;;;;;;2264028;61;1673;-84
2021/05/19 02:58:10;358259.00;1.19;618.06;101727.00;0.34;176.55;;;;;14.90;1.00;;;;;;2263954;61;1168;-84
2021/05/19 03:00:37;334951.00;1.12;578.00;78460.00;0.26;136.38;;;;;15.20;1.00;;;;;;2263955;61;1160;-84
2021/05/19 03:03:04;286627.00;0.96;494.93;92044.00;0.31;159.84;;;;;15.10;1.00;;;;;;2263931;61;1167;-84
2021/05/19 03:05:31;331716.00;1.11;572.44;82152.00;0.27;142.75;;;;;15.30;1.00;;;;;;2263535;61;1336;-84
2021/05/19 03:07:58;325299.00;1.08;561.41;85971.00;0.29;149.35;;;;;15.10;1.00;;;;;;2263518;61;1923;-84
2021/05/19 03:10:25;246303.00;0.82;425.59;83766.00;0.28;145.54;;;;;15.10;1.00;;;;;;2263638;61;974;-84
2021/05/19 03:12:51;343421.00;1.14;592.55;81110.00;0.27;140.95;;;;;15.00;1.00;;;;;;2263326;61;1264;-84
2021/05/19 03:15:19;318168.00;1.06;549.15;79955.00;0.27;138.96;;;;;15.10;1.00;;;;;;2263520;61;1362;-84
2021/05/19 03:17:46;376520.00;1.26;649.44;78895.00;0.26;137.13;;;;;14.90;1.00;;;;;;2263423;61;1132;-84
2021/05/19 03:20:13;321982.00;1.07;555.70;81434.00;0.27;141.51;;;;;14.70;1.00;;;;;;2266725;61;1260;-83
2021/05/19 03:22:40;395202.00;1.32;681.56;91562.00;0.31;159.00;;;;;14.40;1.00;;;;;;2271656;61;1188;-84
2021/05/19 03:25:08;359930.00;1.20;620.93;81461.00;0.27;141.56;;;;;14.40;1.00;;;;;;2263468;61;1261;-84
2021/05/19 03:27:35;327251.00;1.09;564.76;82872.00;0.28;144.00;;;;;14.50;1.00;;;;;;2266945;61;1250;-84
2021/05/19 03:30:03;336336.00;1.12;580.38;67420.00;0.22;117.30;;;;;14.40;1.00;;;;;;2264920;61;1942;-84
2021/05/19 03:32:29;372451.00;1.24;642.45;84749.00;0.28;147.24;;;;;14.10;1.00;;;;;;2263330;61;1170;-84
2021/05/19 03:34:56;416021.00;1.39;717.35;86066.00;0.29;149.51;;;;;13.50;1.00;;;;;;2263020;61;1280;-83
2021/05/19 03:37:22;310879.00;1.04;536.62;87271.00;0.29;151.60;;;;;13.30;1.00;;;;;;2263464;61;1160;-84
2021/05/19 03:39:49;365736.00;1.22;630.91;85185.00;0.28;147.99;;;;;13.50;1.00;;;;;;2263727;61;1110;-84
2021/05/19 03:42:16;301256.00;1.00;520.08;60809.00;0.20;105.88;;;;;13.80;1.00;;;;;;2263472;61;1085;-84
2021/05/19 03:44:42;387454.00;1.29;668.24;86467.00;0.29;150.21;;;;;14.00;1.00;;;;;;2262901;61;1851;-84
2021/05/19 03:47:10;278474.00;0.93;480.91;82941.00;0.28;144.12;;;;;13.60;1.00;;;;;;2263014;61;1282;-83
2021/05/19 03:49:39;399494.00;1.33;688.94;83402.00;0.28;144.91;;;;;13.50;1.00;;;;;;2262737;61;1931;-84
2021/05/19 03:52:06;307336.00;1.02;530.53;84005.00;0.28;145.95;;;;;13.60;1.00;;;;;;2263278;61;1196;-84
2021/05/19 03:54:34;392743.00;1.31;677.33;90685.00;0.30;157.49;;;;;13.60;1.00;;;;;;2265087;61;1696;-84
2021/05/19 03:57:02;458477.00;1.53;790.36;83488.00;0.28;145.06;;;;;13.70;1.00;;;;;;2265924;61;1125;-84
2021/05/19 03:59:29;444129.00;1.48;765.68;78591.00;0.26;136.60;;;;;13.70;1.00;;;;;;2263368;61;1103;-84
2021/05/19 04:01:55;367541.00;1.23;634.01;77689.00;0.26;135.05;;;;;13.80;1.00;;;;;;2263359;61;1430;-83
2021/05/19 04:04:22;368087.00;1.23;634.95;69976.00;0.23;121.72;;;;;14.10;1.00;;;;;;2262923;61;1314;-83
2021/05/19 04:06:48;349554.00;1.17;603.09;82621.00;0.28;143.56;;;;;14.00;1.00;;;;;;2263171;61;1157;-84
2021/05/19 04:09:14;325618.00;1.09;561.95;70189.00;0.23;122.09;;;;;14.00;1.00;;;;;;2263056;61;1939;-84
2021/05/19 04:11:42;389431.00;1.30;671.64;76524.00;0.26;133.03;;;;;14.10;1.00;;;;;;2263067;61;1112;-84
2021/05/19 04:14:09;239268.00;0.80;413.49;54306.00;0.18;94.63;;;;;14.60;1.00;;;;;;2263201;61;1368;-84
2021/05/19 04:16:36;361330.00;1.20;623.33;57855.00;0.19;100.77;;;;;14.70;1.00;;;;;;2262995;61;1288;-84
2021/05/19 04:19:04;321529.00;1.07;554.93;79058.00;0.26;137.41;;;;;14.40;1.00;;;;;;2263621;61;1614;-84
2021/05/19 04:21:30;274245.00;0.91;473.64;81121.00;0.27;140.97;;;;;14.20;1.00;;;;;;2263990;61;1175;-83
2021/05/19 04:23:57;324848.00;1.08;560.63;85790.00;0.29;149.04;;;;;14.40;1.00;;;;;;2263626;61;1127;-84
2021/05/19 04:26:23;440896.00;1.47;760.12;79698.00;0.27;138.52;;;;;14.40;1.00;;;;;;2263583;61;1131;-84
2021/05/19 04:28:50;383796.00;1.28;661.95;79197.00;0.26;137.65;;;;;14.60;1.00;;;;;;2263957;61;1935;-84
2021/05/19 04:31:18;364966.00;1.22;629.58;80740.00;0.27;140.32;;;;;14.70;1.00;;;;;;2263875;61;1113;-84
2021/05/19 04:33:44;514906.00;1.72;887.49;148526.00;0.50;257.27;;;;;14.20;1.00;;;;;;2263520;61;1101;-84
2021/05/19 04:36:10;389206.00;1.30;671.25;77844.00;0.26;135.31;;;;;14.30;1.00;;;;;;2263731;61;1711;-84
2021/05/19 04:38:37;470130.00;1.57;810.41;86614.00;0.29;150.46;;;;;14.20;1.00;;;;;;2263560;61;1096;-84
2021/05/19 04:41:04;413229.00;1.38;712.55;81491.00;0.27;141.61;;;;;14.20;1.00;;;;;;2263970;61;1155;-84
2021/05/19 04:43:31;349228.00;1.16;602.53;84270.00;0.28;146.41;;;;;13.80;1.00;;;;;;2264288;61;1180;-84
2021/05/19 04:45:57;436412.00;1.45;752.41;76638.00;0.26;133.23;;;;;13.60;1.00;;;;;;2264134;61;1353;-83
2021/05/19 04:48:26;338806.00;1.13;584.62;81614.00;0.27;141.83;;;;;14.00;1.00;;;;;;2264262;61;1915;-84
2021/05/19 04:50:53;450233.00;1.50;776.18;79663.00;0.27;138.46;;;;;13.70;1.00;;;;;;2263986;61;1357;-84
2021/05/19 04:53:19;484877.00;1.62;835.79;83331.00;0.28;144.79;;;;;13.90;1.00;;;;;;2263652;61;1415;-84
2021/05/19 04:55:46;429513.00;1.43;740.55;106424.00;0.35;184.66;;;;;14.30;1.00;;;;;;2263359;61;1345;-85
2021/05/19 04:58:13;430413.00;1.43;742.10;81618.00;0.27;141.83;;;;;14.50;1.00;;;;;;2253401;61;1153;-85
2021/05/19 05:00:40;419100.00;1.40;722.64;74552.00;0.25;129.63;;;;;14.70;1.00;;;;;;2263982;61;1097;-85
2021/05/19 05:03:08;333028.00;1.11;574.69;88371.00;0.29;153.49;;;;;14.50;1.00;;;;;;2264014;61;1189;-85
2021/05/19 05:05:35;405145.00;1.35;698.65;72032.00;0.24;125.27;;;;;14.20;1.00;;;;;;2264024;61;1385;-85
2021/05/19 05:08:01;536036.00;1.79;923.89;66630.00;0.22;115.94;;;;;14.00;1.00;;;;;;2265649;61;1485;-86
2021/05/19 05:10:28;283957.00;0.95;490.34;83202.00;0.28;144.57;;;;;14.30;1.00;;;;;;2264833;61;2014;-85
2021/05/19 05:12:54;467860.00;1.56;806.51;78806.00;0.26;136.97;;;;;14.40;1.00;;;;;;2265102;61;1228;-85
2021/05/19 05:15:21;343022.00;1.14;591.87;94038.00;0.31;163.28;;;;;14.70;1.00;;;;;;2264734;61;1311;-85
2021/05/19 05:17:48;378557.00;1.26;652.94;82985.00;0.28;144.19;;;;;14.80;1.00;;;;;;2264296;61;1049;-86
2021/05/19 05:20:15;327968.00;1.09;565.99;81516.00;0.27;141.66;;;;;15.10;1.00;;;;;;2260528;61;1164;-85
2021/05/19 05:22:42;441204.00;1.47;760.65;66291.00;0.22;115.35;;;;;15.00;1.00;;;;;;2264449;61;1164;-85
2021/05/19 05:25:09;296190.00;0.99;511.37;82755.00;0.28;143.80;;;;;14.80;1.00;;;;;;2264686;61;1277;-85
2021/05/19 05:27:36;402787.00;1.34;694.60;75361.00;0.25;131.02;;;;;14.80;1.00;;;;;;2253329;61;1177;-85
2021/05/19 05:30:04;395197.00;1.32;681.55;71142.00;0.24;123.73;;;;;14.50;1.00;;;;;;2263529;61;2006;-85
2021/05/19 05:32:30;542268.00;1.81;934.63;124682.00;0.42;216.16;;;;;14.50;1.00;;;;;;2257277;61;1276;-85
2021/05/19 05:34:57;397697.00;1.33;685.85;95617.00;0.32;166.01;;;;;14.40;1.00;;;;;;2253845;61;1423;-85
2021/05/19 05:37:23;603041.00;2.01;1039.47;122579.00;0.41;212.53;;;;;14.60;1.00;;;;;;2267868;61;1206;-85
2021/05/19 05:39:51;117278624.00;390.93;65340724.00;88245.00;0.29;153.28;;;;;14.50;1.00;;;;;;2260337;61;1168;-85
2021/05/19 05:42:17;337089.00;1.12;581.67;83163.00;0.28;144.50;;;;;14.70;1.00;;;;;;2264533;61;1599;-86
2021/05/19 05:44:43;392914.00;1.31;677.62;83053.00;0.28;144.31;;;;;14.90;1.00;;;;;;2264361;61;1276;-86
2021/05/19 05:47:10;480837.00;1.60;828.84;71267.00;0.24;123.95;;;;;14.90;1.00;;;;;;2264438;61;1139;-85
2021/05/19 05:49:36;443718.00;1.48;764.98;80231.00;0.27;139.44;;;;;14.90;1.00;;;;;;2264163;61;1998;-85
2021/05/19 05:52:03;386904.00;1.29;667.29;81688.00;0.27;141.95;;;;;15.10;1.00;;;;;;2263736;61;1172;-85
2021/05/19 05:54:29;333381.00;1.11;575.30;85357.00;0.28;148.29;;;;;15.30;1.00;;;;;;2263334;61;1360;-86
2021/05/19 05:56:57;354810.00;1.18;612.13;86224.00;0.29;149.79;;;;;15.60;1.00;;;;;;2263854;61;1176;-86
2021/05/19 05:59:24;428287.00;1.43;738.44;88122.00;0.29;153.06;;;;;15.70;1.00;;;;;;2263974;61;1141;-86
2021/05/19 06:01:50;350558.00;1.17;604.82;85979.00;0.29;149.36;;;;;15.80;1.00;;;;;;2263388;61;1172;-86
2021/05/19 06:04:16;397078.00;1.32;684.78;81199.00;0.27;141.11;;;;;15.80;1.00;;;;;;2263769;61;1542;-86
2021/05/19 06:06:43;442880.00;1.48;763.54;85677.00;0.29;148.84;;;;;16.30;1.00;;;;;;2263540;61;1252;-86
2021/05/19 06:09:09;491603.00;1.64;847.37;86932.00;0.29;151.01;;;;;16.40;1.00;;;;;;2263414;61;1939;-85
2021/05/19 06:11:36;241635.00;0.81;417.56;82981.00;0.28;144.19;;;;;16.50;1.00;;;;;;2264219;61;1065;-86
2021/05/19 06:14:03;306836.00;1.02;529.67;84531.00;0.28;146.86;;;;;16.30;1.00;;;;;;2264355;61;1370;-86
2021/05/19 06:16:30;355269.00;1.18;612.92;75444.00;0.25;131.17;;;;;16.90;1.00;;;;;;2264067;61;1103;-86
2021/05/19 06:18:56;116890072.00;389.63;64692868.00;83713.00;0.28;145.45;;;;;17.90;1.00;;;;;;2264174;61;1179;-86
2021/05/19 06:21:23;296574.00;0.99;512.03;83545.00;0.28;145.16;;;;;18.80;1.00;;;;;;2264082;61;1219;-86
2021/05/19 06:23:49;271536.00;0.91;468.98;85568.00;0.29;148.65;;;;;19.80;1.00;;;;;;2263529;61;1232;-86
2021/05/19 06:26:15;287140.00;0.96;495.81;82874.00;0.28;144.00;;;;;21.50;1.00;;;;;;2264064;61;1331;-86
2021/05/19 06:28:42;187878.00;0.63;325.05;77002.00;0.26;133.86;;;;;22.20;1.00;;;;;;2263572;61;2004;-87
2021/05/19 06:31:09;448768.00;1.50;773.66;124228.00;0.41;215.38;;;;;23.10;1.00;;;;;;2258789;61;1695;-89
2021/05/19 06:33:35;305232.00;1.02;526.91;74822.00;0.25;130.09;;;;;24.10;1.00;;;;;;2262959;61;1224;-89
2021/05/19 06:36:02;264042.00;0.88;456.10;72980.00;0.24;126.91;;;;;23.70;1.00;;;;;;2262967;61;1451;-89
2021/05/19 06:38:28;190417.00;0.63;329.43;72167.00;0.24;125.50;;;;;23.90;1.00;;;;;;2262019;61;1160;-89
2021/05/19 06:40:55;580105.00;1.93;999.88;287324.00;0.96;496.13;;;;;24.70;1.00;;;;;;2262217;61;1256;-90
2021/05/19 06:43:22;249328.00;0.83;430.80;73268.00;0.24;127.41;;;;;25.30;1.00;;;;;;2255686;61;1090;-87
2021/05/19 06:45:48;215946.00;0.72;373.37;61253.00;0.20;106.64;;;;;25.70;1.00;;;;;;2256591;61;1424;-87
2021/05/19 06:48:15;171314.00;0.57;296.53;81003.00;0.27;140.77;;;;;25.50;1.00;;;;;;2264091;61;1181;-89
2021/05/19 06:50:42;170336.00;0.57;294.85;70125.00;0.23;121.98;;;;;26.00;1.00;;;;;;2271586;61;1940;-88
2021/05/19 06:53:08;180811.00;0.60;312.89;59968.00;0.20;104.42;;;;;26.20;1.00;;;;;;2271204;61;1104;-87
2021/05/19 06:55:34;230735.00;0.77;398.81;78708.00;0.26;136.81;;;;;26.40;1.00;;;;;;2271729;61;1411;-88
2021/05/19 06:58:01;202709.00;0.68;350.59;78621.00;0.26;136.66;;;;;26.60;1.00;;;;;;2271593;61;1124;-87
2021/05/19 07:00:28;238317.00;0.79;411.86;70202.00;0.23;122.11;;;;;26.20;1.00;;;;;;2271567;61;1558;-87
2021/05/19 07:02:54;242001.00;0.81;418.19;78991.00;0.26;137.29;;;;;27.20;1.00;;;;;;2271589;61;1096;-86
2021/05/19 07:05:21;177553.00;0.59;307.28;70956.00;0.24;123.41;;;;;26.40;1.00;;;;;;2271708;61;1368;-89
2021/05/19 07:07:48;184288.00;0.61;318.87;73443.00;0.24;127.71;;;;;26.30;1.00;;;;;;2270632;61;1198;-90
2021/05/19 07:10:15;216068.00;0.72;373.58;71733.00;0.24;124.75;;;;;25.30;1.00;;;;;;2263276;61;2014;-88
2021/05/19 07:12:41;213228.00;0.71;368.69;76345.00;0.25;132.72;;;;;24.00;1.00;;;;;;2269412;61;1157;-89
2021/05/19 07:15:12;405476.00;1.35;699.22;36267.00;0.12;63.43;;;;;23.40;1.00;;;;;;2267000;61;1348;-91
2021/05/19 09:19:40;921684.00;3.07;1594.24;0.00;0.00;0.62;;;;;20.00;1.00;;;;;;2270676;61;994;-94
2021/05/19 09:27:05;720909.00;2.40;1243.52;0.00;0.00;0.62;;;;;19.70;1.00;;;;;;2502692;40;3498;31
2021/05/19 09:59:21;1366967.00;4.56;2395.20;0.00;0.00;0.62;;;;;21.90;1.00;;;;;;2270587;61;960;-93
2021/05/19 10:04:19;887031.00;2.96;1533.35;0.00;0.00;0.62;;;;;21.30;1.00;;;;;;1168580;55;3704;-90
2021/05/19 10:24:12;646296.00;2.15;1114.23;0.00;0.00;0.62;;;;;21.30;1.00;;;;;;2274712;61;1295;-92
2021/05/19 10:27:03;139240.00;0.46;241.26;0.00;0.00;0.62;;;;;20.00;1.00;;;;;;2273004;61;380;-91
2021/05/19 10:32:30;300231.00;1.00;518.32;0.00;0.00;0.62;;;;;19.00;1.00;;;;;;2274557;61;1310;-92
2021/05/19 10:37:50;520123.00;1.73;896.48;0.00;0.00;0.62;;;;;19.80;1.00;;;;;;2274454;61;1318;-92
2021/05/19 10:42:54;478842.00;1.60;825.40;0.00;0.00;0.62;;;;;20.80;1.00;;;;;;2274748;61;1304;-92
2021/05/19 11:22:52;290612.00;0.97;501.78;0.00;0.00;0.62;;;;;21.30;1.00;;;;;;2270172;61;1017;-92
2021/05/19 11:32:44;628273.00;2.09;1083.06;0.00;0.00;0.62;;;;;20.60;1.00;;;;;;2274520;61;1000;-91
2021/05/19 11:42:52;309216.00;1.03;533.76;0.00;0.00;0.62;;;;;21.10;1.00;;;;;;2278202;61;1025;-92
2021/05/19 12:07:38;758036.00;2.53;1308.03;76781.00;0.26;133.48;;;;;22.30;1.00;;;;;;2274409;61;1300;-93
2021/05/19 12:15:00;981663.00;3.27;1700.02;69578.00;0.23;121.03;;;;;21.80;1.00;;;;;;1648903;55;3676;-89
2021/05/19 12:19:54;426753.00;1.42;735.80;118247.00;0.39;205.06;;;;;21.50;1.00;;;;;;2270485;61;1051;-90
2021/05/19 12:33:14;531868.00;1.77;916.71;0.00;0.00;0.62;;;;;22.30;1.00;;;;;;2324659;40;3598;-89
2021/05/19 12:55:24;294022.00;0.98;507.64;0.00;0.00;0.62;;;;;21.00;1.00;;;;;;2274609;61;1419;-91
2021/05/19 14:34:23;448253.00;1.49;772.78;11403.00;0.04;20.38;;;;;21.70;1.00;;;;;;2270191;61;1276;-90
2021/05/19 17:27:48;271330.00;0.90;468.63;0.00;0.00;0.62;;;;;17.10;1.00;;;;;;2269835;61;1294;-92
2021/05/19 17:32:43;449095.00;1.50;774.23;0.00;0.00;0.62;;;;;17.10;1.00;;;;;;2273956;61;1414;-90
2021/05/19 17:35:11;344670.00;1.15;594.70;0.00;0.00;0.62;;;;;17.20;1.00;;;;;;2263806;61;1318;-90
2021/05/19 17:37:37;236034.00;0.79;407.93;0.00;0.00;0.62;;;;;17.50;1.00;;;;;;2260549;61;986;-91
2021/05/19 17:40:05;298817.00;1.00;515.89;0.00;0.00;0.62;;;;;17.50;1.00;;;;;;2257267;61;985;-92
2021/05/19 17:42:32;241018.00;0.80;416.50;0.00;0.00;0.62;;;;;17.50;1.00;;;;;;2263612;61;989;-90
2021/05/19 17:45:00;213649.00;0.71;369.41;0.00;0.00;0.62;;;;;17.50;1.00;;;;;;2255707;61;1420;-90
2021/05/19 17:47:27;245376.00;0.82;424.00;0.00;0.00;0.62;;;;;17.60;1.00;;;;;;2252398;61;1020;-91
2021/05/19 17:49:54;315034.00;1.05;543.76;0.00;0.00;0.62;;;;;17.90;1.00;;;;;;2251637;61;2009;-91
2021/05/19 17:52:21;412815.00;1.38;711.84;0.00;0.00;0.62;;;;;18.00;1.00;;;;;;2243690;61;971;-91
2021/05/19 17:54:48;140006.00;0.47;242.58;0.00;0.00;0.62;;;;;18.10;1.00;;;;;;2243317;61;1444;-90
2021/05/19 18:04:39;295574.00;0.99;510.31;0.00;0.00;0.62;;;;;17.70;1.00;;;;;;2270474;61;1379;-91
2021/05/19 18:07:07;256373.00;0.85;442.91;0.00;0.00;0.62;;;;;17.50;1.00;;;;;;2264513;61;1020;-90
2021/05/19 18:17:06;223766.00;0.75;386.82;0.00;0.00;0.62;;;;;17.60;1.00;;;;;;2278361;61;1233;-90
2021/05/19 18:19:32;67775.00;0.23;117.92;0.00;0.00;0.62;;;;;17.40;1.00;;;;;;2269172;61;922;-90
2021/05/19 18:22:02;182299.00;0.61;315.45;0.00;0.00;0.62;;;;;17.50;1.00;;;;;;2263625;61;977;-91
2021/05/19 18:34:34;333934.00;1.11;576.25;0.00;0.00;0.62;;;;;17.00;1.00;;;;;;2273770;61;1431;-90
2021/05/19 18:37:03;63110.00;0.21;109.85;0.00;0.00;0.62;;;;;17.10;1.00;;;;;;2272004;61;1838;-91
2021/05/19 18:39:30;492474.00;1.64;848.87;0.00;0.00;0.62;;;;;17.10;1.00;;;;;;2272061;61;1653;-90
2021/05/19 18:44:25;690453.00;2.30;1190.69;0.00;0.00;0.62;;;;;17.40;1.00;;;;;;2273816;61;1402;-90
2021/05/19 18:46:54;117412392.00;391.37;65564760.00;0.00;0.00;0.62;;;;;17.30;1.00;;;;;;2271996;61;1079;-90
2021/05/19 18:54:36;549901.00;1.83;947.79;0.00;0.00;0.62;;;;;17.10;1.00;;;;;;2277152;61;1372;-90
2021/05/19 18:59:34;578123.00;1.93;996.46;0.00;0.00;0.62;;;;;17.30;1.00;;;;;;2274775;61;1205;-93
2021/05/19 19:02:01;204420.00;0.68;353.53;0.00;0.00;0.62;;;;;17.40;1.00;;;;;;2265143;61;954;-91
2021/05/19 19:04:28;368984.00;1.23;636.49;0.00;0.00;0.62;;;;;17.00;1.00;;;;;;2263582;61;1398;-90
2021/05/19 19:06:54;473815.00;1.58;816.75;0.00;0.00;0.62;;;;;16.70;1.00;;;;;;2253668;61;962;-90
2021/05/19 19:09:21;174484.00;0.58;301.99;0.00;0.00;0.62;;;;;16.50;1.00;;;;;;2263086;61;2005;-91
2021/05/19 19:11:51;212968.00;0.71;368.24;0.00;0.00;0.62;;;;;16.50;1.00;;;;;;2256923;61;1043;-92
2021/05/19 19:14:20;159776.00;0.53;276.65;0.00;0.00;0.62;;;;;16.50;1.00;;;;;;2251489;61;1405;-90
2021/05/19 19:16:47;222643.00;0.74;384.89;0.00;0.00;0.62;;;;;16.90;1.00;;;;;;2251589;61;1061;-91
2021/05/19 19:19:16;258420.00;0.86;446.43;0.00;0.00;0.62;;;;;17.00;1.00;;;;;;2251283;61;979;-92
2021/05/19 19:21:43;131010.00;0.44;227.07;0.00;0.00;0.62;;;;;17.10;1.00;;;;;;2252843;61;1022;-90
2021/05/19 19:26:41;323366.00;1.08;558.08;0.00;0.00;0.62;;;;;17.10;1.00;;;;;;2278331;61;1308;-91
2021/05/19 19:29:09;145438.00;0.48;251.94;0.00;0.00;0.62;;;;;17.20;1.00;;;;;;2276195;61;980;-91
2021/05/19 19:31:35;180099.00;0.60;311.66;0.00;0.00;0.62;;;;;17.20;1.00;;;;;;2269007;61;1932;-91
2021/05/19 19:34:01;316561.00;1.06;546.39;9619.00;0.03;17.29;;;;;16.70;1.00;;;;;;2268979;61;1396;-90
2021/05/19 19:36:28;382805.00;1.28;660.25;0.00;0.00;0.62;;;;;16.40;1.00;;;;;;2263494;61;1048;-90
2021/05/19 19:38:54;123216.00;0.41;213.63;0.00;0.00;0.62;;;;;16.30;1.00;;;;;;2259438;61;997;-90
2021/05/19 19:41:22;360852.00;1.20;622.51;0.00;0.00;0.62;;;;;16.20;1.00;;;;;;2256165;61;989;-90